createdAt,value
2022-11-17T00:00:18.529Z,94.64
2022-11-17T00:02:45.643Z,96.73
2022-11-17T00:05:12.069Z,97.20
2022-11-17T00:07:38.442Z,96.77
2022-11-17T00:10:05.329Z,97.71
2022-11-17T00:12:33.131Z,98.71
2022-11-17T00:14:59.697Z,98.42
2022-11-17T00:17:26.040Z,99.42
2022-11-17T00:19:52.437Z,100.00
2022-11-17T00:22:19.103Z,100.00
2022-11-17T00:24:45.535Z,100.00
2022-11-17T00:27:12.416Z,100.00
2022-11-17T00:29:39.518Z,100.00
2022-11-17T00:32:16.362Z,100.00
2022-11-17T00:34:42.922Z,100.00
2022-11-17T00:37:10.609Z,100.00
2022-11-17T00:39:37.523Z,100.00
2022-11-17T00:42:04.271Z,100.00
2022-11-17T00:44:31.181Z,100.00
2022-11-17T00:46:57.567Z,100.00
2022-11-17T00:49:23.936Z,100.00
2022-11-17T00:51:50.723Z,100.00
2022-11-17T00:54:17.244Z,100.00
2022-11-17T00:56:43.640Z,100.00
2022-11-17T00:59:10.597Z,100.00
2022-11-17T01:01:38.094Z,100.00
2022-11-17T01:04:05.209Z,100.00
2022-11-17T01:06:38.291Z,100.00
2022-11-17T01:09:07.108Z,100.00
2022-11-17T01:11:33.836Z,100.00
2022-11-17T01:14:00.666Z,100.00
2022-11-17T01:16:28.965Z,100.00
2022-11-17T01:18:55.419Z,100.00
2022-11-17T01:21:24.087Z,100.00
2022-11-17T01:23:52.506Z,100.00
2022-11-17T01:26:25.093Z,100.00
2022-11-17T01:28:52.234Z,100.00
2022-11-17T01:31:21.732Z,100.00
2022-11-17T01:33:48.707Z,100.00
2022-11-17T01:36:17.801Z,100.00
2022-11-17T01:38:45.097Z,100.00
2022-11-17T01:41:16.141Z,100.00
2022-11-17T01:43:50.948Z,100.00
2022-11-17T01:46:39.244Z,100.00
2022-11-17T01:49:16.521Z,100.00
2022-11-17T01:51:50.584Z,100.00
2022-11-17T01:54:21.097Z,100.00
2022-11-17T01:56:52.019Z,100.00
2022-11-17T01:59:30.940Z,100.00
2022-11-17T02:01:57.832Z,100.00
2022-11-17T02:04:44.218Z,100.00
2022-11-17T02:07:20.953Z,100.00
2022-11-17T02:09:47.334Z,100.00
2022-11-17T02:12:15.257Z,100.00
2022-11-17T02:14:41.638Z,100.00
2022-11-17T02:17:14.027Z,100.00
2022-11-17T02:19:42.979Z,100.00
2022-11-17T02:22:25.917Z,100.00
2022-11-17T02:25:13.984Z,100.00
2022-11-17T02:27:53.363Z,100.00
2022-11-17T02:30:22.328Z,100.00
2022-11-17T02:33:01.042Z,100.00
2022-11-17T02:35:37.393Z,100.00
2022-11-17T02:38:25.098Z,100.00
2022-11-17T02:41:12.042Z,100.00
2022-11-17T02:43:45.258Z,100.00
2022-11-17T02:46:21.366Z,100.00
2022-11-17T02:48:58.587Z,100.00
2022-11-17T02:51:25.112Z,100.00
2022-11-17T02:53:54.166Z,100.00
2022-11-17T02:56:20.961Z,100.00
2022-11-17T02:58:54.320Z,100.00
2022-11-17T03:01:36.854Z,100.00
2022-11-17T03:04:31.315Z,100.00
2022-11-17T03:07:00.434Z,100.00
2022-11-17T03:09:42.421Z,100.00
2022-11-17T03:12:28.996Z,100.00
2022-11-17T03:15:04.963Z,100.00
2022-11-17T03:17:39.783Z,100.00
2022-11-17T03:20:17.543Z,100.00
2022-11-17T03:22:53.697Z,100.00
2022-11-17T03:25:23.202Z,100.00
2022-11-17T03:27:54.730Z,100.00
2022-11-17T03:30:21.237Z,100.00
2022-11-17T03:32:51.733Z,100.00
2022-11-17T03:35:23.296Z,100.00
2022-11-17T03:37:53.694Z,100.00
2022-11-17T03:40:25.215Z,100.00
2022-11-17T03:42:56.245Z,100.00
2022-11-17T03:45:26.523Z,100.00
2022-11-17T03:48:00.133Z,100.00
2022-11-17T03:50:36.697Z,100.00
2022-11-17T03:53:04.815Z,100.00
2022-11-17T03:55:41.556Z,100.00
2022-11-17T03:58:15.452Z,100.00
2022-11-17T04:00:42.953Z,100.00
2022-11-17T04:03:09.340Z,100.00
2022-11-17T04:05:35.706Z,100.00
2022-11-17T04:08:02.033Z,100.00
2022-11-17T04:10:28.482Z,100.00
2022-11-17T04:12:55.040Z,100.00
2022-11-17T04:15:21.546Z,100.00
2022-11-17T04:17:47.924Z,100.00
2022-11-17T04:20:14.580Z,100.00
2022-11-17T04:22:40.900Z,100.00
2022-11-17T04:25:07.621Z,100.00
2022-11-17T04:27:34.006Z,100.00
2022-11-17T04:30:00.313Z,100.00
2022-11-17T04:32:26.619Z,100.00
2022-11-17T04:34:52.909Z,100.00
2022-11-17T04:37:19.249Z,100.00
2022-11-17T04:39:45.834Z,100.00
2022-11-17T04:42:12.538Z,100.00
2022-11-17T04:44:38.856Z,100.00
2022-11-17T04:47:05.225Z,100.00
2022-11-17T04:49:32.294Z,100.00
2022-11-17T04:51:58.745Z,100.00
2022-11-17T04:54:25.113Z,100.00
2022-11-17T04:56:53.935Z,100.00
2022-11-17T04:59:21.004Z,100.00
2022-11-17T05:01:47.760Z,100.00
2022-11-17T05:04:16.557Z,100.00
2022-11-17T05:06:44.717Z,100.00
2022-11-17T05:09:13.590Z,100.00
2022-11-17T05:11:40.612Z,100.00
2022-11-17T05:14:07.553Z,100.00
2022-11-17T05:16:33.938Z,100.00
2022-11-17T05:19:00.258Z,100.00
2022-11-17T05:21:26.600Z,100.00
2022-11-17T05:23:52.922Z,100.00
2022-11-17T05:26:21.728Z,100.00
2022-11-17T05:28:48.391Z,100.00
2022-11-17T05:31:15.107Z,100.00
2022-11-17T05:33:42.140Z,100.00
2022-11-17T05:36:09.610Z,100.00
2022-11-17T05:38:36.232Z,100.00
2022-11-17T05:41:02.693Z,100.00
2022-11-17T05:43:29.136Z,100.00
2022-11-17T05:45:55.477Z,100.00
2022-11-17T05:48:21.780Z,100.00
2022-11-17T05:50:48.153Z,100.00
2022-11-17T05:53:14.464Z,100.00
2022-11-17T05:55:40.769Z,100.00
2022-11-17T05:58:15.548Z,100.00
2022-11-17T06:00:42.100Z,100.00
2022-11-17T06:03:15.761Z,100.00
2022-11-17T06:05:42.923Z,100.00
2022-11-17T06:08:09.486Z,100.00
2022-11-17T06:10:35.834Z,100.00
2022-11-17T06:13:02.125Z,100.00
2022-11-17T06:15:33.480Z,100.00
2022-11-17T06:18:06.728Z,100.00
2022-11-17T06:20:38.189Z,100.00
2022-11-17T06:23:07.467Z,100.00
2022-11-17T06:25:35.829Z,100.00
2022-11-17T06:28:04.709Z,100.00
2022-11-17T06:30:31.428Z,100.00
2022-11-17T06:32:59.243Z,100.00
2022-11-17T06:35:25.557Z,100.00
2022-11-17T06:37:51.865Z,100.00
2022-11-17T06:40:18.194Z,100.00
2022-11-17T06:42:44.532Z,100.00
2022-11-17T06:45:11.568Z,100.00
2022-11-17T06:47:37.910Z,100.00
2022-11-17T06:50:04.782Z,100.00
2022-11-17T06:52:31.083Z,100.00
2022-11-17T06:54:57.401Z,100.00
2022-11-17T06:57:23.705Z,100.00
2022-11-17T06:59:50.025Z,100.00
2022-11-17T07:02:16.378Z,100.00
2022-11-17T07:04:42.707Z,100.00
2022-11-17T07:07:09.106Z,100.00
2022-11-17T07:09:35.449Z,100.00
2022-11-17T07:12:01.814Z,100.00
2022-11-17T07:14:28.140Z,100.00
2022-11-17T07:16:54.435Z,100.00
2022-11-17T07:19:20.783Z,100.00
2022-11-17T07:21:47.146Z,100.00
2022-11-17T07:24:13.490Z,100.00
2022-11-17T07:26:39.882Z,100.00
2022-11-17T07:29:06.343Z,100.00
2022-11-17T07:31:35.131Z,100.00
2022-11-17T07:34:01.432Z,100.00
2022-11-17T07:36:27.776Z,100.00
2022-11-17T07:38:54.127Z,100.00
2022-11-17T07:41:20.583Z,100.00
2022-11-17T07:43:46.913Z,100.00
2022-11-17T07:46:14.683Z,100.00
2022-11-17T07:48:41.983Z,100.00
2022-11-17T07:51:08.573Z,100.00
2022-11-17T07:53:36.025Z,100.00
2022-11-17T07:56:11.482Z,100.00
2022-11-17T07:58:38.565Z,100.00
2022-11-17T08:01:13.700Z,100.00
2022-11-17T08:03:40.211Z,100.00
2022-11-17T08:06:07.628Z,100.00
2022-11-17T08:08:34.454Z,100.00
2022-11-17T08:11:11.452Z,100.00
2022-11-17T08:13:39.120Z,100.00
2022-11-17T08:16:06.818Z,100.00
2022-11-17T08:18:34.085Z,100.00
2022-11-17T08:21:03.165Z,100.00
2022-11-17T08:23:29.497Z,100.00
2022-11-17T08:25:55.921Z,100.00
2022-11-17T08:28:22.383Z,100.00
2022-11-17T08:30:48.799Z,100.00
2022-11-17T08:33:15.136Z,100.00
2022-11-17T08:35:41.605Z,100.00
2022-11-17T08:38:07.941Z,100.00
2022-11-17T08:40:34.271Z,100.00
2022-11-17T08:43:01.399Z,100.00
2022-11-17T08:45:28.277Z,100.00
2022-11-17T08:47:56.104Z,100.00
2022-11-17T08:50:22.455Z,100.00
2022-11-17T08:52:48.865Z,100.00
2022-11-17T08:55:15.456Z,100.00
2022-11-17T08:57:41.815Z,100.00
2022-11-17T09:00:08.870Z,100.00
2022-11-17T09:02:35.214Z,100.00
2022-11-17T09:05:01.567Z,100.00
2022-11-17T09:07:33.494Z,100.00
2022-11-17T09:10:01.939Z,100.00
2022-11-17T09:12:28.251Z,100.00
2022-11-17T09:14:54.570Z,100.00
2022-11-17T09:17:20.893Z,100.00
2022-11-17T09:19:47.303Z,100.00
2022-11-17T09:22:13.654Z,100.00
2022-11-17T09:24:39.946Z,100.00
2022-11-17T09:27:06.309Z,100.00
2022-11-17T09:29:32.600Z,100.00
2022-11-17T09:31:58.954Z,100.00
2022-11-17T09:34:25.396Z,100.00
2022-11-17T09:36:51.768Z,100.00
2022-11-17T09:39:18.136Z,100.00
2022-11-17T09:42:03.228Z,100.00
2022-11-17T09:44:43.890Z,100.00
2022-11-17T09:47:13.576Z,100.00
2022-11-17T09:49:55.084Z,100.00
2022-11-17T09:52:34.823Z,100.00
2022-11-17T09:55:22.197Z,100.00
2022-11-17T09:57:56.497Z,100.00
2022-11-17T10:00:23.272Z,100.00
2022-11-17T10:02:50.811Z,100.00
2022-11-17T10:05:32.843Z,100.00
2022-11-17T10:08:06.109Z,100.00
2022-11-17T10:10:52.662Z,100.00
2022-11-17T10:13:30.580Z,100.00
2022-11-17T10:16:12.056Z,100.00
2022-11-17T10:18:39.147Z,100.00
2022-11-17T10:21:07.078Z,100.00
2022-11-17T10:23:46.143Z,100.00
2022-11-17T10:26:15.239Z,100.00
2022-11-17T10:28:41.849Z,100.00
2022-11-17T10:31:14.275Z,100.00
2022-11-17T10:33:46.577Z,100.00
2022-11-17T10:36:24.035Z,100.00
2022-11-17T10:38:54.359Z,100.00
2022-11-17T10:41:23.857Z,100.00
2022-11-17T10:44:04.622Z,100.00
2022-11-17T10:46:41.562Z,100.00
2022-11-17T10:49:24.920Z,100.00
2022-11-17T10:52:14.251Z,100.00
2022-11-17T10:54:40.742Z,100.00
2022-11-17T10:57:13.262Z,100.00
2022-11-17T10:59:46.141Z,100.00
2022-11-17T11:02:33.784Z,100.00
2022-11-17T11:05:19.000Z,100.00
2022-11-17T11:07:45.439Z,100.00
2022-11-17T11:10:23.513Z,100.00
2022-11-17T11:13:17.270Z,100.00
2022-11-17T11:15:44.820Z,100.00
2022-11-17T11:18:17.306Z,100.00
2022-11-17T11:21:09.430Z,100.00
2022-11-17T11:23:48.146Z,100.00
2022-11-17T11:26:47.475Z,100.00
2022-11-17T11:29:34.959Z,100.00
2022-11-17T11:32:10.828Z,100.00
2022-11-17T11:34:52.348Z,100.00
2022-11-17T11:37:18.724Z,100.00
2022-11-17T11:40:06.538Z,100.00
2022-11-17T11:43:11.121Z,100.00
2022-11-17T11:46:07.954Z,100.00
2022-11-17T11:48:39.941Z,100.00
2022-11-17T11:51:19.062Z,100.00
2022-11-17T11:53:56.141Z,100.00
2022-11-17T11:56:31.529Z,100.00
2022-11-17T11:59:06.241Z,100.00
2022-11-17T12:01:44.887Z,100.00
2022-11-17T12:04:30.788Z,100.00
2022-11-17T12:07:33.135Z,100.00
2022-11-17T12:10:06.350Z,100.00
2022-11-17T12:12:36.970Z,100.00
2022-11-17T12:15:32.143Z,100.00
2022-11-17T12:18:18.361Z,100.00
2022-11-17T12:21:12.309Z,100.00
2022-11-17T12:23:58.071Z,100.00
2022-11-17T12:26:25.958Z,100.00
2022-11-17T12:29:19.914Z,100.00
2022-11-17T12:31:48.255Z,100.00
2022-11-17T12:34:27.880Z,100.00
2022-11-17T12:37:06.197Z,100.00
2022-11-17T12:39:51.507Z,100.00
2022-11-17T12:42:17.893Z,100.00
2022-11-17T12:44:47.225Z,100.00
2022-11-17T12:47:13.511Z,100.00
2022-11-17T12:50:01.900Z,100.00
2022-11-17T12:52:47.299Z,100.00
2022-11-17T12:55:24.205Z,100.00
2022-11-17T12:57:57.836Z,100.00
2022-11-17T13:00:24.584Z,100.00
2022-11-17T13:03:08.838Z,100.00
2022-11-17T13:05:35.110Z,100.00
2022-11-17T13:08:13.358Z,100.00
2022-11-17T13:10:51.352Z,100.00
2022-11-17T13:13:23.578Z,100.00
2022-11-17T13:15:55.448Z,100.00
2022-11-17T13:18:38.602Z,100.00
2022-11-17T13:21:35.379Z,100.00
2022-11-17T13:24:01.752Z,100.00
2022-11-17T13:26:30.368Z,100.00
2022-11-17T13:29:05.160Z,100.00
2022-11-17T13:31:31.965Z,100.00
2022-11-17T13:34:12.665Z,100.00
2022-11-17T13:36:59.204Z,100.00
2022-11-17T13:39:27.698Z,100.00
2022-11-17T13:41:55.845Z,100.00
2022-11-17T13:44:25.574Z,100.00
2022-11-17T13:46:51.933Z,100.00
2022-11-17T13:49:36.329Z,100.00
2022-11-17T13:52:03.580Z,100.00
2022-11-17T13:54:30.496Z,100.00
2022-11-17T13:57:06.454Z,100.00
2022-11-17T13:59:36.108Z,100.00
2022-11-17T14:02:17.498Z,100.00
2022-11-17T14:05:23.140Z,100.00
2022-11-17T14:07:52.029Z,100.00
2022-11-17T14:10:21.143Z,100.00
2022-11-17T14:13:08.236Z,100.00
2022-11-17T14:15:53.625Z,100.00
2022-11-17T14:18:31.908Z,100.00
2022-11-17T14:21:06.627Z,100.00
2022-11-17T14:23:33.634Z,100.00
2022-11-17T14:26:00.029Z,100.00
2022-11-17T14:28:26.530Z,100.00
2022-11-17T14:30:54.785Z,100.00
2022-11-17T14:33:21.784Z,100.00
2022-11-17T14:35:54.298Z,100.00
2022-11-17T14:38:21.852Z,100.00
2022-11-17T14:40:50.228Z,100.00
2022-11-17T14:43:16.605Z,100.00
2022-11-17T14:45:42.906Z,100.00
2022-11-17T14:48:14.660Z,100.00
2022-11-17T14:50:44.018Z,100.00
2022-11-17T14:53:10.353Z,100.00
2022-11-17T14:55:36.864Z,100.00
2022-11-17T14:58:03.206Z,100.00
2022-11-17T15:00:29.579Z,100.00
2022-11-17T15:02:55.912Z,100.00
2022-11-17T15:05:22.472Z,100.00
2022-11-17T15:07:48.842Z,100.00
2022-11-17T15:10:15.231Z,100.00
2022-11-17T15:12:41.532Z,100.00
2022-11-17T15:15:08.197Z,100.00
2022-11-17T15:17:34.504Z,100.00
2022-11-17T15:20:00.797Z,100.00
2022-11-17T15:22:27.107Z,100.00
2022-11-17T15:24:53.413Z,100.00
2022-11-17T15:27:19.756Z,100.00
2022-11-17T15:29:46.129Z,100.00
2022-11-17T15:32:12.498Z,100.00
2022-11-17T15:34:38.777Z,100.00
2022-11-17T15:37:05.089Z,100.00
2022-11-17T15:39:31.446Z,100.00
2022-11-17T15:41:57.796Z,100.00
2022-11-17T15:44:24.258Z,100.00
2022-11-17T15:46:50.575Z,100.00
2022-11-17T15:49:17.332Z,100.00
2022-11-17T15:51:44.166Z,100.00
2022-11-17T15:54:18.166Z,100.00
2022-11-17T15:56:46.617Z,100.00
2022-11-17T15:59:13.296Z,100.00
2022-11-17T16:01:40.156Z,100.00
2022-11-17T16:04:12.157Z,100.00
2022-11-17T16:06:41.045Z,100.00
2022-11-17T16:09:08.047Z,100.00
2022-11-17T16:11:35.219Z,100.00
2022-11-17T16:14:02.055Z,100.00
2022-11-17T16:16:34.551Z,100.00
2022-11-17T16:19:00.891Z,100.00
2022-11-17T16:21:27.477Z,100.00
2022-11-17T16:23:56.203Z,100.00
2022-11-17T16:26:24.773Z,100.00
2022-11-17T16:29:02.048Z,100.00
2022-11-17T16:31:31.345Z,100.00
2022-11-17T16:34:06.724Z,100.00
2022-11-17T16:36:37.238Z,100.00
2022-11-17T16:39:06.132Z,100.00
2022-11-17T16:41:35.612Z,100.00
2022-11-17T16:44:03.175Z,100.00
2022-11-17T16:46:31.374Z,100.00
2022-11-17T16:49:03.736Z,100.00
2022-11-17T16:51:30.519Z,99.59
2022-11-17T16:53:59.438Z,99.63
2022-11-17T16:56:25.821Z,99.50
2022-11-17T16:58:52.397Z,98.71
2022-11-17T17:01:24.610Z,98.83
2022-11-17T17:03:58.777Z,98.92
2022-11-17T17:06:26.157Z,98.79
2022-11-17T17:09:00.484Z,99.28
2022-11-17T17:11:27.259Z,98.17
2022-11-17T17:13:53.627Z,99.12
2022-11-17T17:16:20.356Z,98.50
2022-11-17T17:18:46.814Z,98.27
2022-11-17T17:21:15.757Z,98.30
2022-11-17T17:23:42.379Z,98.24
2022-11-17T17:26:14.207Z,98.13
2022-11-17T17:28:41.296Z,97.88
2022-11-17T17:31:07.884Z,98.07
2022-11-17T17:33:35.930Z,97.58
2022-11-17T17:36:06.489Z,97.53
2022-11-17T17:38:32.875Z,97.65
2022-11-17T17:41:16.635Z,96.80
2022-11-17T17:43:44.253Z,97.25
2022-11-17T17:46:15.754Z,97.46
2022-11-17T17:48:44.009Z,96.76
2022-11-17T17:51:16.097Z,97.01
2022-11-17T17:53:42.855Z,96.44
2022-11-17T17:56:12.510Z,96.49
2022-11-17T17:58:40.059Z,97.13
2022-11-17T18:01:10.575Z,96.22
2022-11-17T18:03:37.821Z,96.42
2022-11-17T18:06:04.660Z,96.51
2022-11-17T18:08:34.409Z,96.36
2022-11-17T18:11:01.198Z,96.39
2022-11-17T18:13:35.937Z,96.31
2022-11-17T18:16:06.988Z,95.82
2022-11-17T18:18:34.664Z,96.14
2022-11-17T18:21:03.149Z,96.41
2022-11-17T18:23:30.777Z,95.55
2022-11-17T18:25:58.026Z,96.48
2022-11-17T18:28:25.089Z,95.67
2022-11-17T18:30:51.379Z,95.76
2022-11-17T18:33:17.746Z,95.80
2022-11-17T18:35:44.097Z,95.60
2022-11-17T18:38:10.435Z,96.00
2022-11-17T18:40:36.753Z,95.66
2022-11-17T18:43:03.097Z,95.60
2022-11-17T18:45:29.409Z,95.99
2022-11-17T18:47:55.774Z,95.95
2022-11-17T18:50:22.176Z,95.45
2022-11-17T18:52:48.459Z,95.70
2022-11-17T18:55:14.805Z,95.69
2022-11-17T18:57:44.899Z,95.75
2022-11-17T19:00:12.249Z,95.73
2022-11-17T19:02:38.600Z,95.67
2022-11-17T19:05:05.284Z,96.18
2022-11-17T19:07:32.037Z,95.93
2022-11-17T19:09:58.424Z,95.89
2022-11-17T19:12:24.866Z,95.79
2022-11-17T19:14:51.208Z,96.28
2022-11-17T19:17:17.566Z,96.51
2022-11-17T19:19:43.914Z,96.48
2022-11-17T19:22:10.269Z,96.09
2022-11-17T19:24:36.624Z,96.35
2022-11-17T19:27:03.118Z,96.71
2022-11-17T19:29:29.420Z,96.87
2022-11-17T19:31:55.767Z,97.55
2022-11-17T19:34:22.139Z,97.44
2022-11-17T19:36:48.442Z,97.74
2022-11-17T19:39:15.445Z,97.39
2022-11-17T19:41:42.699Z,97.53
2022-11-17T19:44:09.461Z,97.74
2022-11-17T19:46:36.190Z,97.85
2022-11-17T19:49:04.066Z,98.06
2022-11-17T19:51:32.316Z,97.60
2022-11-17T19:54:01.641Z,97.88
2022-11-17T19:56:28.174Z,97.92
2022-11-17T19:58:54.519Z,98.25
2022-11-17T20:01:28.640Z,98.17
2022-11-17T20:03:56.606Z,97.83
2022-11-17T20:06:25.578Z,97.84
2022-11-17T20:08:51.923Z,98.17
2022-11-17T20:11:21.110Z,98.74
2022-11-17T20:13:47.841Z,98.72
2022-11-17T20:16:19.706Z,99.16
2022-11-17T20:18:49.408Z,98.94
2022-11-17T20:21:15.708Z,99.51
2022-11-17T20:23:42.138Z,99.40
2022-11-17T20:26:12.248Z,99.69
2022-11-17T20:28:39.030Z,99.75
2022-11-17T20:31:10.261Z,99.54
2022-11-17T20:33:41.536Z,99.81
2022-11-17T20:36:10.986Z,99.94
2022-11-17T20:38:37.483Z,100.00
2022-11-17T20:41:04.719Z,100.00
2022-11-17T20:43:31.522Z,99.86
2022-11-17T20:45:58.174Z,100.00
2022-11-17T20:48:25.338Z,100.00
2022-11-17T20:51:12.339Z,100.00
2022-11-17T20:53:39.361Z,100.00
2022-11-17T20:56:08.236Z,100.00
2022-11-17T20:58:35.238Z,100.00
2022-11-17T21:01:13.168Z,100.00
2022-11-17T21:03:40.171Z,100.00
2022-11-17T21:06:07.112Z,100.00
2022-11-17T21:08:35.966Z,100.00
2022-11-17T21:11:05.200Z,100.00
2022-11-17T21:13:33.174Z,100.00
2022-11-17T21:16:08.494Z,100.00
2022-11-17T21:18:36.179Z,100.00
2022-11-17T21:21:02.952Z,100.00
2022-11-17T21:23:29.310Z,100.00
2022-11-17T21:25:55.650Z,100.00
2022-11-17T21:28:22.032Z,100.00
2022-11-17T21:30:48.433Z,100.00
2022-11-17T21:33:14.754Z,100.00
2022-11-17T21:35:41.097Z,100.00
2022-11-17T21:38:07.505Z,100.00
2022-11-17T21:40:33.901Z,100.00
2022-11-17T21:43:00.224Z,100.00
2022-11-17T21:45:26.591Z,100.00
2022-11-17T21:47:58.045Z,100.00
2022-11-17T21:50:25.691Z,100.00
2022-11-17T21:52:52.027Z,100.00
2022-11-17T21:55:18.357Z,100.00
2022-11-17T21:57:44.640Z,100.00
2022-11-17T22:00:11.026Z,100.00
2022-11-17T22:02:37.365Z,100.00
2022-11-17T22:05:03.888Z,100.00
2022-11-17T22:07:30.275Z,100.00
2022-11-17T22:09:56.614Z,100.00
2022-11-17T22:12:22.903Z,100.00
2022-11-17T22:14:49.398Z,100.00
2022-11-17T22:17:15.758Z,100.00
2022-11-17T22:19:42.075Z,100.00
2022-11-17T22:22:08.442Z,100.00
2022-11-17T22:24:39.607Z,100.00
2022-11-17T22:27:06.270Z,100.00
2022-11-17T22:29:33.119Z,100.00
2022-11-17T22:31:59.569Z,100.00
2022-11-17T22:34:25.906Z,100.00
2022-11-17T22:36:52.244Z,100.00
2022-11-17T22:39:18.841Z,100.00
2022-11-17T22:41:45.527Z,100.00
2022-11-17T22:44:13.802Z,100.00
2022-11-17T22:46:40.523Z,100.00
2022-11-17T22:49:06.972Z,100.00
2022-11-17T22:51:33.291Z,100.00
2022-11-17T22:53:59.515Z,100.00
2022-11-17T22:56:25.851Z,100.00
2022-11-17T22:58:55.474Z,100.00
2022-11-17T23:01:25.826Z,100.00
2022-11-17T23:03:52.231Z,100.00
2022-11-17T23:06:18.646Z,100.00
2022-11-17T23:08:44.947Z,100.00
2022-11-17T23:11:38.509Z,100.00
2022-11-17T23:13:57.599Z,100.00
2022-11-17T23:16:23.916Z,100.00
2022-11-17T23:18:54.846Z,100.00
2022-11-17T23:21:21.643Z,100.00
2022-11-17T23:23:48.004Z,100.00
2022-11-17T23:26:14.448Z,100.00
2022-11-17T23:28:42.337Z,100.00
2022-11-17T23:31:14.472Z,100.00
2022-11-17T23:33:45.737Z,100.00
2022-11-17T23:36:15.277Z,100.00
2022-11-17T23:38:41.695Z,100.00
2022-11-17T23:41:11.206Z,100.00
2022-11-17T23:43:37.708Z,100.00
2022-11-17T23:46:15.895Z,100.00
2022-11-17T23:48:43.179Z,100.00
2022-11-17T23:51:16.179Z,100.00
2022-11-17T23:53:42.614Z,100.00
2022-11-17T23:56:10.004Z,100.00
2022-11-17T23:58:36.958Z,100.00
